Bei Facebook empfehlenBei Twitter postenGoogle plusPinterest

Das Wetter im Erzgebirge am 19.02.2017

Wetter und Klima am 19.02.2017 Holzhau im Erzgebirge (630m ü.NN)
Letzte gemessene Temperatur und Uhrzeit der Messung23:45:00 Uhr0.90 °C
Temperatur (Maximum / Höchstwert) und Uhrzeit der Messung13:00:00 Uhr5.80 °C
Temperatur (Minimum / Tiefstwert) und Uhrzeit der Messung07:30:00-3.60 °C
Errechneter Absolutwert der Temperaturschwankungen zwischen Tmin und Tmax des Tages9.40 K
Errechnete Tagesmitteltemperatur0.86875 °C
Gesamt - Niederschlag des Tages (in flüssiger Form)0.00 Liter / m²
Luftdruck (Maximum / Höchstwert) und Zeitpunkt der Messung00:00:00 Uhr1019.80 hPa
Luftdruck (Minimum / Tiefstwert) und Zeitpunkt der Messung18:15:00 Uhr1014.20 hPa
Errechneter Absolutwert der Luftdruckschwankungen des Tages5.60 hPa
Höchste gemessene Windgeschwindigkeit und Uhrzeit der Messung11:45:00 Uhr8.28 km/h
Errechnete Windhäufigkeit in Relation zu den Messwerten des Tages21.87500 %
Niedrigste Windkühle (Windchill) und Zeitpunkt der Messung07:30:00 Uhr-3.60 °C
Taupunkt (Maximum / Höchstwert) und Uhrzeit der Messung14:30:00 Uhr1.50 °C
Taupunkt (Minimum / Tiefstwert) und Uhrzeit der Messung07:30:00-4.70 °C
Anzahl der automatisch eingelesenen Messwerte 96

Detaillierte Wetter- und Klima- Messwerte für den 19.02.2017 in Holzhau im Erzgebirge (630m ü.NN)
ZeitTemperaturLuftdruckRel. LuftfeuchteWindWindrichtungWindchillTaupunktNiederschlag l/m²
23:45:000.90 °C1014.70 hPa92.00 %-0.20 °C 
23:30:000.80 °C1014.50 hPa91.00 %-0.50 °C 
23:15:000.60 °C1014.50 hPa91.00 %-0.70 °C 
23:00:000.60 °C1014.60 hPa91.00 %-0.70 °C 
22:45:000.50 °C1014.50 hPa91.00 %-0.80 °C 
22:30:000.40 °C1014.60 hPa91.00 %-0.90 °C 
22:15:000.40 °C1014.60 hPa90.00 %-1.00 °C 
22:00:000.50 °C1014.40 hPa90.00 %-0.90 °C 
21:45:000.60 °C1014.40 hPa90.00 %-0.80 °C 
21:30:000.80 °C1014.40 hPa89.00 %0.72 km/hWNW0.80 °C-0.80 °C 
21:15:000.70 °C1014.50 hPa89.00 %-0.90 °C 
21:00:000.50 °C1014.60 hPa89.00 %-1.10 °C 
20:45:000.30 °C1014.40 hPa89.00 %-1.30 °C 
20:30:00-0.10 °C1014.50 hPa89.00 %-1.90 °C 
20:15:00-0.40 °C1014.50 hPa89.00 %-2.20 °C 
20:00:00-0.60 °C1014.30 hPa89.00 %-2.40 °C 
19:45:00-0.70 °C1014.30 hPa89.00 %-2.50 °C 
19:30:00-0.70 °C1014.40 hPa88.00 %-2.60 °C 
19:15:00-0.60 °C1014.30 hPa88.00 %-2.50 °C 
19:00:00-0.60 °C1014.50 hPa87.00 %-2.70 °C 
18:45:00-0.20 °C1014.40 hPa86.00 %-2.50 °C 
18:30:00-0.10 °C1014.40 hPa86.00 %-2.40 °C 
18:15:00-0.10 °C1014.20 hPa85.00 %-2.60 °C 
18:00:000.40 °C1014.30 hPa84.00 %-2.00 °C 
17:45:001.00 °C1014.20 hPa82.00 %-1.70 °C 
17:30:001.50 °C1014.20 hPa81.00 %-1.40 °C 
17:15:001.90 °C1014.40 hPa80.00 %-1.20 °C 
17:00:002.30 °C1014.40 hPa79.00 %-1.00 °C 
16:45:002.80 °C1014.40 hPa78.00 %-0.60 °C 
16:30:003.40 °C1014.20 hPa77.00 %7.20 km/hSW1.50 °C-0.20 °C 
16:15:004.10 °C1014.70 hPa77.00 %0.40 °C 
16:00:004.30 °C1014.70 hPa77.00 %2.16 km/hWNW4.30 °C0.60 °C 
15:45:004.60 °C1014.70 hPa76.00 %0.70 °C 
15:30:004.60 °C1014.90 hPa76.00 %0.70 °C 
15:15:004.70 °C1014.80 hPa76.00 %0.80 °C 
15:00:004.80 °C1014.90 hPa75.00 %0.80 °C 
14:45:005.30 °C1015.20 hPa75.00 %1.44 km/hWNW5.30 °C1.20 °C 
14:30:005.60 °C1015.30 hPa75.00 %1.50 °C 
14:15:005.40 °C1015.40 hPa76.00 %1.50 °C 
14:00:005.10 °C1015.50 hPa76.00 %1.20 °C 
13:45:004.90 °C1015.60 hPa76.00 %1.00 °C 
13:30:005.00 °C1015.90 hPa74.00 %0.80 °C 
13:15:005.60 °C1016.00 hPa73.00 %3.60 km/hSW5.60 °C1.20 °C 
13:00:005.80 °C1016.20 hPa73.00 %3.60 km/hWSW5.80 °C1.30 °C 
12:45:005.40 °C1016.20 hPa75.00 %6.48 km/hSW4.00 °C1.30 °C 
12:30:005.20 °C1016.40 hPa74.00 %1.44 km/hWNW5.20 °C1.00 °C 
12:15:004.50 °C1016.60 hPa79.00 %2.52 km/hSW4.50 °C1.20 °C 
12:00:003.80 °C1016.70 hPa79.00 %0.50 °C 
11:45:004.10 °C1016.80 hPa77.00 %8.28 km/hSW2.00 °C0.40 °C 
11:30:004.30 °C1016.90 hPa79.00 %5.40 km/hWNW3.10 °C1.00 °C 
11:15:003.90 °C1017.00 hPa80.00 %6.48 km/hWNW2.30 °C0.80 °C 
11:00:003.50 °C1017.10 hPa81.00 %0.60 °C 
10:45:003.20 °C1017.00 hPa83.00 %2.88 km/hW3.20 °C0.60 °C 
10:30:002.90 °C1017.20 hPa84.00 %1.44 km/hW2.90 °C0.50 °C 
10:15:002.40 °C1017.10 hPa88.00 %3.24 km/hWSW2.40 °C0.60 °C 
10:00:002.10 °C1017.10 hPa89.00 %0.50 °C 
09:45:001.50 °C1017.10 hPa92.00 %1.08 km/hSW1.50 °C0.30 °C 
09:30:000.90 °C1017.20 hPa93.00 %3.24 km/hS0.90 °C-0.10 °C 
09:15:000.30 °C1017.20 hPa94.00 %-0.50 °C 
09:00:00-0.40 °C1017.30 hPa94.00 %1.08 km/hS-0.40 °C-1.30 °C 
08:45:00-1.20 °C1017.40 hPa94.00 %-2.10 °C 
08:30:00-2.20 °C1017.30 hPa94.00 %3.60 km/hS-2.20 °C-3.10 °C 
08:15:00-3.20 °C1017.40 hPa93.00 %-4.30 °C 
08:00:00-3.30 °C1017.50 hPa93.00 %-4.40 °C 
07:45:00-3.30 °C1017.60 hPa93.00 %-4.40 °C 
07:30:00-3.60 °C1017.50 hPa93.00 %-4.70 °C 
07:15:00-3.40 °C1017.60 hPa93.00 %-4.50 °C 
07:00:00-3.20 °C1017.40 hPa92.00 %-4.40 °C 
06:45:00-2.90 °C1017.60 hPa92.00 %-4.10 °C 
06:30:00-2.70 °C1017.60 hPa92.00 %-3.90 °C 
06:15:00-2.50 °C1017.80 hPa92.00 %-3.80 °C 
06:00:00-2.40 °C1017.90 hPa92.00 %-3.70 °C 
05:45:00-2.20 °C1018.20 hPa92.00 %-3.50 °C 
05:30:00-1.70 °C1018.10 hPa93.00 %-2.80 °C 
05:15:00-1.20 °C1018.30 hPa93.00 %-2.30 °C 
05:00:00-1.00 °C1018.00 hPa93.00 %2.52 km/hSSW-1.00 °C-2.10 °C 
04:45:00-1.10 °C1018.20 hPa93.00 %1.44 km/hWSW-1.10 °C-2.20 °C 
04:30:00-1.00 °C1018.30 hPa93.00 %-2.10 °C 
04:15:00-0.80 °C1018.30 hPa93.00 %-1.90 °C 
04:00:00-0.70 °C1018.40 hPa93.00 %-1.80 °C 
03:45:00-0.60 °C1018.40 hPa94.00 %-1.50 °C 
03:30:00-0.60 °C1018.60 hPa94.00 %-1.50 °C 
03:15:00-0.60 °C1018.70 hPa94.00 %-1.50 °C 
03:00:00-0.50 °C1019.00 hPa94.00 %-1.40 °C 
02:45:00-0.50 °C1019.10 hPa94.00 %-1.40 °C 
02:30:00-0.40 °C1019.30 hPa94.00 %-1.30 °C 
02:15:00-0.40 °C1019.30 hPa94.00 %-1.30 °C 
02:00:00-0.40 °C1019.30 hPa94.00 %-1.30 °C 
01:45:00-0.50 °C1019.20 hPa94.00 %-1.40 °C 
01:30:00-0.40 °C1019.30 hPa94.00 %-1.30 °C 
01:15:00-0.40 °C1019.40 hPa94.00 %-1.30 °C 
01:00:00-0.40 °C1019.40 hPa94.00 %-1.30 °C 
00:45:00-0.40 °C1019.60 hPa94.00 %-1.30 °C 
00:30:00-0.40 °C1019.50 hPa94.00 %-1.30 °C 
00:15:00-0.30 °C1019.70 hPa94.00 %-1.20 °C 
00:00:00-0.40 °C1019.80 hPa94.00 %-1.30 °C 

Permanenter Link zu dieser Seite: Wetter im Erzgebirge am 19.02.2017
Performance-Info: Die Erstellung der Seite / Statistik(en) / Tabelle(n) erforderte 5 Datenbankserver-Abfrage(n) und dauerte 124 Millisekunden. (Dieser Messwert ist von der Gesamt-Auslastung des Servers abhängig.)
Erzgebirge - Wetter | Erzgebirge - Wetter (Mobilgeräte) | Komplette Klimadatenbank